sensor_id;sensor_type;location;lat;lon;timestamp;P1;durP1;ratioP1;P2;durP2;ratioP2
64885;SDS011;51514;52.206;5.114;2023-03-17T00:00:43;8.55;;;4.30;;
64885;SDS011;51514;52.206;5.114;2023-03-17T00:03:11;5.43;;;4.20;;
64885;SDS011;51514;52.206;5.114;2023-03-17T00:05:44;5.18;;;4.28;;
64885;SDS011;51514;52.206;5.114;2023-03-17T00:08:12;4.18;;;3.40;;
64885;SDS011;51514;52.206;5.114;2023-03-17T00:10:48;5.68;;;3.60;;
64885;SDS011;51514;52.206;5.114;2023-03-17T00:13:14;6.18;;;4.10;;
64885;SDS011;51514;52.206;5.114;2023-03-17T00:15:40;5.63;;;4.18;;
64885;SDS011;51514;52.206;5.114;2023-03-17T00:18:09;6.47;;;3.70;;
64885;SDS011;51514;52.206;5.114;2023-03-17T00:20:36;5.22;;;3.50;;
64885;SDS011;51514;52.206;5.114;2023-03-17T00:23:01;6.47;;;3.80;;
64885;SDS011;51514;52.206;5.114;2023-03-17T00:25:29;8.35;;;4.10;;
64885;SDS011;51514;52.206;5.114;2023-03-17T00:27:57;6.53;;;4.20;;
64885;SDS011;51514;52.206;5.114;2023-03-17T00:30:23;6.57;;;3.80;;
64885;SDS011;51514;52.206;5.114;2023-03-17T00:32:49;6.82;;;4.35;;
64885;SDS011;51514;52.206;5.114;2023-03-17T00:35:18;7.53;;;4.22;;
64885;SDS011;51514;52.206;5.114;2023-03-17T00:37:44;6.65;;;4.50;;
64885;SDS011;51514;52.206;5.114;2023-03-17T00:40:14;7.65;;;3.67;;
64885;SDS011;51514;52.206;5.114;2023-03-17T00:42:45;7.60;;;4.68;;
64885;SDS011;51514;52.206;5.114;2023-03-17T00:45:11;11.65;;;5.18;;
64885;SDS011;51514;52.206;5.114;2023-03-17T00:47:37;9.85;;;4.30;;
64885;SDS011;51514;52.206;5.114;2023-03-17T00:50:04;6.85;;;4.40;;
64885;SDS011;51514;52.206;5.114;2023-03-17T00:52:31;9.48;;;4.05;;
64885;SDS011;51514;52.206;5.114;2023-03-17T00:54:56;6.65;;;4.65;;
64885;SDS011;51514;52.206;5.114;2023-03-17T00:57:21;6.78;;;4.18;;
64885;SDS011;51514;52.206;5.114;2023-03-17T00:59:47;7.70;;;4.25;;
64885;SDS011;51514;52.206;5.114;2023-03-17T01:02:12;7.57;;;4.45;;
64885;SDS011;51514;52.206;5.114;2023-03-17T01:04:38;6.75;;;4.72;;
64885;SDS011;51514;52.206;5.114;2023-03-17T01:07:05;6.78;;;4.45;;
64885;SDS011;51514;52.206;5.114;2023-03-17T01:09:30;6.78;;;3.95;;
64885;SDS011;51514;52.206;5.114;2023-03-17T01:11:57;8.52;;;4.18;;
64885;SDS011;51514;52.206;5.114;2023-03-17T01:14:23;6.07;;;4.40;;
64885;SDS011;51514;52.206;5.114;2023-03-17T01:16:49;5.25;;;3.75;;
64885;SDS011;51514;52.206;5.114;2023-03-17T01:19:17;6.55;;;4.13;;
64885;SDS011;51514;52.206;5.114;2023-03-17T01:21:43;8.18;;;4.85;;
64885;SDS011;51514;52.206;5.114;2023-03-17T01:24:09;6.55;;;4.30;;
64885;SDS011;51514;52.206;5.114;2023-03-17T01:26:35;8.07;;;3.95;;
64885;SDS011;51514;52.206;5.114;2023-03-17T01:29:00;8.63;;;4.40;;
64885;SDS011;51514;52.206;5.114;2023-03-17T01:31:25;8.55;;;4.32;;
64885;SDS011;51514;52.206;5.114;2023-03-17T01:33:51;6.97;;;4.28;;
64885;SDS011;51514;52.206;5.114;2023-03-17T01:36:16;6.65;;;4.20;;
64885;SDS011;51514;52.206;5.114;2023-03-17T01:38:42;7.97;;;4.32;;
64885;SDS011;51514;52.206;5.114;2023-03-17T01:41:07;7.93;;;4.32;;
64885;SDS011;51514;52.206;5.114;2023-03-17T01:43:34;7.13;;;4.03;;
64885;SDS011;51514;52.206;5.114;2023-03-17T01:48:57;6.72;;;4.85;;
64885;SDS011;51514;52.206;5.114;2023-03-17T01:54:10;5.90;;;3.83;;
64885;SDS011;51514;52.206;5.114;2023-03-17T01:56:41;7.45;;;4.53;;
64885;SDS011;51514;52.206;5.114;2023-03-17T01:59:09;7.50;;;4.15;;
64885;SDS011;51514;52.206;5.114;2023-03-17T02:01:41;8.85;;;4.97;;
64885;SDS011;51514;52.206;5.114;2023-03-17T02:04:09;7.90;;;4.70;;
64885;SDS011;51514;52.206;5.114;2023-03-17T02:06:36;6.25;;;4.55;;
64885;SDS011;51514;52.206;5.114;2023-03-17T02:09:02;6.50;;;4.20;;
64885;SDS011;51514;52.206;5.114;2023-03-17T02:11:28;7.32;;;4.38;;
64885;SDS011;51514;52.206;5.114;2023-03-17T02:13:54;6.35;;;4.13;;
64885;SDS011;51514;52.206;5.114;2023-03-17T02:16:20;6.55;;;4.32;;
64885;SDS011;51514;52.206;5.114;2023-03-17T02:18:46;7.97;;;4.68;;
64885;SDS011;51514;52.206;5.114;2023-03-17T02:24:08;6.22;;;4.10;;
64885;SDS011;51514;52.206;5.114;2023-03-17T02:26:39;7.80;;;4.40;;
64885;SDS011;51514;52.206;5.114;2023-03-17T02:29:07;6.75;;;4.47;;
64885;SDS011;51514;52.206;5.114;2023-03-17T02:31:32;9.38;;;4.50;;
64885;SDS011;51514;52.206;5.114;2023-03-17T02:33:59;5.65;;;4.35;;
64885;SDS011;51514;52.206;5.114;2023-03-17T02:36:24;6.78;;;4.55;;
64885;SDS011;51514;52.206;5.114;2023-03-17T02:38:50;6.97;;;4.22;;
64885;SDS011;51514;52.206;5.114;2023-03-17T02:41:16;8.75;;;4.88;;
64885;SDS011;51514;52.206;5.114;2023-03-17T02:43:41;8.50;;;4.43;;
64885;SDS011;51514;52.206;5.114;2023-03-17T02:46:07;7.18;;;4.80;;
64885;SDS011;51514;52.206;5.114;2023-03-17T02:48:32;7.68;;;4.70;;
64885;SDS011;51514;52.206;5.114;2023-03-17T02:51:00;7.40;;;4.32;;
64885;SDS011;51514;52.206;5.114;2023-03-17T02:53:26;7.03;;;4.18;;
64885;SDS011;51514;52.206;5.114;2023-03-17T02:55:51;7.25;;;4.65;;
64885;SDS011;51514;52.206;5.114;2023-03-17T02:58:16;6.43;;;4.22;;
64885;SDS011;51514;52.206;5.114;2023-03-17T03:00:42;8.23;;;4.32;;
64885;SDS011;51514;52.206;5.114;2023-03-17T03:03:07;8.20;;;4.35;;
64885;SDS011;51514;52.206;5.114;2023-03-17T03:05:33;5.82;;;4.00;;
64885;SDS011;51514;52.206;5.114;2023-03-17T03:07:59;6.50;;;4.30;;
64885;SDS011;51514;52.206;5.114;2023-03-17T03:10:24;6.32;;;4.38;;
64885;SDS011;51514;52.206;5.114;2023-03-17T03:12:50;6.32;;;4.13;;
64885;SDS011;51514;52.206;5.114;2023-03-17T03:15:16;6.32;;;4.10;;
64885;SDS011;51514;52.206;5.114;2023-03-17T03:17:41;5.93;;;4.03;;
64885;SDS011;51514;52.206;5.114;2023-03-17T03:20:07;8.48;;;4.10;;
64885;SDS011;51514;52.206;5.114;2023-03-17T03:22:35;6.90;;;4.53;;
64885;SDS011;51514;52.206;5.114;2023-03-17T03:25:01;7.28;;;4.55;;
64885;SDS011;51514;52.206;5.114;2023-03-17T03:27:26;5.07;;;3.75;;
64885;SDS011;51514;52.206;5.114;2023-03-17T03:29:52;7.15;;;3.78;;
64885;SDS011;51514;52.206;5.114;2023-03-17T03:32:17;7.70;;;4.18;;
64885;SDS011;51514;52.206;5.114;2023-03-17T03:34:42;6.35;;;3.67;;
64885;SDS011;51514;52.206;5.114;2023-03-17T03:37:08;7.85;;;4.10;;
64885;SDS011;51514;52.206;5.114;2023-03-17T03:39:33;7.30;;;4.28;;
64885;SDS011;51514;52.206;5.114;2023-03-17T03:41:59;7.15;;;4.25;;
64885;SDS011;51514;52.206;5.114;2023-03-17T03:44:24;6.93;;;4.50;;
64885;SDS011;51514;52.206;5.114;2023-03-17T03:46:50;6.35;;;4.03;;
64885;SDS011;51514;52.206;5.114;2023-03-17T03:49:15;5.50;;;3.63;;
64885;SDS011;51514;52.206;5.114;2023-03-17T03:51:41;5.60;;;3.78;;
64885;SDS011;51514;52.206;5.114;2023-03-17T03:54:06;6.00;;;4.00;;
64885;SDS011;51514;52.206;5.114;2023-03-17T03:56:31;7.25;;;4.00;;
64885;SDS011;51514;52.206;5.114;2023-03-17T03:58:57;5.88;;;3.85;;
64885;SDS011;51514;52.206;5.114;2023-03-17T04:01:22;6.15;;;4.00;;
64885;SDS011;51514;52.206;5.114;2023-03-17T04:03:48;9.55;;;4.28;;
64885;SDS011;51514;52.206;5.114;2023-03-17T04:06:13;7.95;;;4.15;;
64885;SDS011;51514;52.206;5.114;2023-03-17T04:08:40;5.88;;;4.38;;
64885;SDS011;51514;52.206;5.114;2023-03-17T04:11:05;6.60;;;4.10;;
64885;SDS011;51514;52.206;5.114;2023-03-17T04:13:30;6.20;;;4.28;;
64885;SDS011;51514;52.206;5.114;2023-03-17T04:15:56;6.53;;;4.05;;
64885;SDS011;51514;52.206;5.114;2023-03-17T04:18:21;10.55;;;4.80;;
64885;SDS011;51514;52.206;5.114;2023-03-17T04:20:46;6.38;;;4.15;;
64885;SDS011;51514;52.206;5.114;2023-03-17T04:23:11;6.90;;;4.05;;
64885;SDS011;51514;52.206;5.114;2023-03-17T04:25:37;6.97;;;4.07;;
64885;SDS011;51514;52.206;5.114;2023-03-17T04:28:02;6.90;;;4.05;;
64885;SDS011;51514;52.206;5.114;2023-03-17T04:30:28;7.65;;;4.20;;
64885;SDS011;51514;52.206;5.114;2023-03-17T04:32:53;7.18;;;4.32;;
64885;SDS011;51514;52.206;5.114;2023-03-17T04:35:19;8.07;;;4.40;;
64885;SDS011;51514;52.206;5.114;2023-03-17T04:37:46;7.60;;;4.03;;
64885;SDS011;51514;52.206;5.114;2023-03-17T04:40:12;8.00;;;4.13;;
64885;SDS011;51514;52.206;5.114;2023-03-17T04:42:39;7.57;;;4.35;;
64885;SDS011;51514;52.206;5.114;2023-03-17T04:45:05;9.98;;;4.35;;
64885;SDS011;51514;52.206;5.114;2023-03-17T04:47:32;8.05;;;4.30;;
64885;SDS011;51514;52.206;5.114;2023-03-17T04:49:57;7.63;;;4.55;;
64885;SDS011;51514;52.206;5.114;2023-03-17T04:52:22;5.57;;;4.05;;
64885;SDS011;51514;52.206;5.114;2023-03-17T04:54:48;8.95;;;4.63;;
64885;SDS011;51514;52.206;5.114;2023-03-17T04:57:13;7.07;;;4.38;;
64885;SDS011;51514;52.206;5.114;2023-03-17T04:59:39;6.00;;;3.80;;
64885;SDS011;51514;52.206;5.114;2023-03-17T05:02:04;7.80;;;4.13;;
64885;SDS011;51514;52.206;5.114;2023-03-17T05:04:30;6.05;;;3.75;;
64885;SDS011;51514;52.206;5.114;2023-03-17T05:06:55;6.93;;;4.18;;
64885;SDS011;51514;52.206;5.114;2023-03-17T05:09:22;6.13;;;3.90;;
64885;SDS011;51514;52.206;5.114;2023-03-17T05:11:48;6.30;;;3.65;;
64885;SDS011;51514;52.206;5.114;2023-03-17T05:14:13;7.40;;;4.65;;
64885;SDS011;51514;52.206;5.114;2023-03-17T05:16:39;8.60;;;4.50;;
64885;SDS011;51514;52.206;5.114;2023-03-17T05:19:04;9.45;;;4.35;;
64885;SDS011;51514;52.206;5.114;2023-03-17T05:21:30;7.50;;;4.13;;
64885;SDS011;51514;52.206;5.114;2023-03-17T05:23:56;6.03;;;3.92;;
64885;SDS011;51514;52.206;5.114;2023-03-17T05:26:21;6.38;;;4.43;;
64885;SDS011;51514;52.206;5.114;2023-03-17T05:28:47;8.45;;;4.65;;
64885;SDS011;51514;52.206;5.114;2023-03-17T05:31:12;5.88;;;4.35;;
64885;SDS011;51514;52.206;5.114;2023-03-17T05:33:38;8.38;;;4.40;;
64885;SDS011;51514;52.206;5.114;2023-03-17T05:36:03;6.72;;;4.38;;
64885;SDS011;51514;52.206;5.114;2023-03-17T05:38:29;8.13;;;4.28;;
64885;SDS011;51514;52.206;5.114;2023-03-17T05:40:54;7.47;;;4.25;;
64885;SDS011;51514;52.206;5.114;2023-03-17T05:43:20;7.43;;;4.25;;
64885;SDS011;51514;52.206;5.114;2023-03-17T05:45:45;5.50;;;3.95;;
64885;SDS011;51514;52.206;5.114;2023-03-17T05:48:11;6.85;;;4.47;;
64885;SDS011;51514;52.206;5.114;2023-03-17T05:50:37;9.88;;;4.60;;
64885;SDS011;51514;52.206;5.114;2023-03-17T05:53:03;7.55;;;3.97;;
64885;SDS011;51514;52.206;5.114;2023-03-17T05:55:28;6.95;;;4.22;;
64885;SDS011;51514;52.206;5.114;2023-03-17T05:57:54;7.05;;;4.28;;
64885;SDS011;51514;52.206;5.114;2023-03-17T06:00:19;7.50;;;3.92;;
64885;SDS011;51514;52.206;5.114;2023-03-17T06:02:45;6.10;;;3.92;;
64885;SDS011;51514;52.206;5.114;2023-03-17T06:05:11;7.32;;;4.13;;
64885;SDS011;51514;52.206;5.114;2023-03-17T06:07:37;7.10;;;3.90;;
64885;SDS011;51514;52.206;5.114;2023-03-17T06:10:02;7.70;;;4.22;;
64885;SDS011;51514;52.206;5.114;2023-03-17T06:12:28;8.38;;;4.70;;
64885;SDS011;51514;52.206;5.114;2023-03-17T06:14:53;6.22;;;4.10;;
64885;SDS011;51514;52.206;5.114;2023-03-17T06:17:19;8.23;;;4.28;;
64885;SDS011;51514;52.206;5.114;2023-03-17T06:19:44;7.38;;;3.90;;
64885;SDS011;51514;52.206;5.114;2023-03-17T06:22:09;6.22;;;3.97;;
64885;SDS011;51514;52.206;5.114;2023-03-17T06:24:35;8.00;;;4.10;;
64885;SDS011;51514;52.206;5.114;2023-03-17T06:27:00;7.65;;;4.35;;
64885;SDS011;51514;52.206;5.114;2023-03-17T06:29:26;7.82;;;3.85;;
64885;SDS011;51514;52.206;5.114;2023-03-17T06:31:53;7.65;;;4.25;;
64885;SDS011;51514;52.206;5.114;2023-03-17T06:34:19;7.90;;;4.20;;
64885;SDS011;51514;52.206;5.114;2023-03-17T06:36:46;7.95;;;4.10;;
64885;SDS011;51514;52.206;5.114;2023-03-17T06:39:12;7.20;;;4.03;;
64885;SDS011;51514;52.206;5.114;2023-03-17T06:41:38;6.05;;;4.15;;
64885;SDS011;51514;52.206;5.114;2023-03-17T06:44:04;9.20;;;4.45;;
64885;SDS011;51514;52.206;5.114;2023-03-17T06:46:30;7.55;;;4.10;;
64885;SDS011;51514;52.206;5.114;2023-03-17T06:48:56;5.47;;;4.13;;
64885;SDS011;51514;52.206;5.114;2023-03-17T06:51:22;6.30;;;3.78;;
64885;SDS011;51514;52.206;5.114;2023-03-17T06:53:48;9.07;;;4.80;;
64885;SDS011;51514;52.206;5.114;2023-03-17T06:56:13;7.45;;;4.20;;
64885;SDS011;51514;52.206;5.114;2023-03-17T06:58:38;6.88;;;4.10;;
64885;SDS011;51514;52.206;5.114;2023-03-17T07:01:04;6.90;;;4.57;;
64885;SDS011;51514;52.206;5.114;2023-03-17T07:03:31;6.47;;;4.20;;
64885;SDS011;51514;52.206;5.114;2023-03-17T07:05:57;5.13;;;3.90;;
64885;SDS011;51514;52.206;5.114;2023-03-17T07:08:23;9.45;;;3.72;;
64885;SDS011;51514;52.206;5.114;2023-03-17T07:10:49;7.85;;;4.07;;
64885;SDS011;51514;52.206;5.114;2023-03-17T07:13:15;6.28;;;4.05;;
64885;SDS011;51514;52.206;5.114;2023-03-17T07:15:40;6.80;;;4.30;;
64885;SDS011;51514;52.206;5.114;2023-03-17T07:18:08;5.90;;;4.63;;
64885;SDS011;51514;52.206;5.114;2023-03-17T07:20:35;6.07;;;4.28;;
64885;SDS011;51514;52.206;5.114;2023-03-17T07:23:00;8.13;;;4.55;;
64885;SDS011;51514;52.206;5.114;2023-03-17T07:25:25;8.80;;;4.57;;
64885;SDS011;51514;52.206;5.114;2023-03-17T07:27:51;11.73;;;4.55;;
64885;SDS011;51514;52.206;5.114;2023-03-17T07:30:16;5.85;;;3.85;;
64885;SDS011;51514;52.206;5.114;2023-03-17T07:32:43;8.85;;;4.32;;
64885;SDS011;51514;52.206;5.114;2023-03-17T07:35:09;6.00;;;3.92;;
64885;SDS011;51514;52.206;5.114;2023-03-17T07:37:36;7.32;;;4.30;;
64885;SDS011;51514;52.206;5.114;2023-03-17T07:40:01;10.77;;;5.13;;
64885;SDS011;51514;52.206;5.114;2023-03-17T07:42:27;6.18;;;4.30;;
64885;SDS011;51514;52.206;5.114;2023-03-17T07:44:53;6.20;;;4.22;;
64885;SDS011;51514;52.206;5.114;2023-03-17T07:47:18;7.80;;;4.47;;
64885;SDS011;51514;52.206;5.114;2023-03-17T07:49:43;7.68;;;4.43;;
64885;SDS011;51514;52.206;5.114;2023-03-17T07:52:09;9.85;;;4.32;;
64885;SDS011;51514;52.206;5.114;2023-03-17T07:54:35;7.10;;;4.13;;
64885;SDS011;51514;52.206;5.114;2023-03-17T07:57:01;7.07;;;4.40;;
64885;SDS011;51514;52.206;5.114;2023-03-17T07:59:27;8.20;;;4.63;;
64885;SDS011;51514;52.206;5.114;2023-03-17T08:01:53;7.47;;;4.70;;
64885;SDS011;51514;52.206;5.114;2023-03-17T08:04:18;7.60;;;4.65;;
64885;SDS011;51514;52.206;5.114;2023-03-17T08:06:43;8.50;;;4.90;;
64885;SDS011;51514;52.206;5.114;2023-03-17T08:09:11;9.10;;;4.85;;
64885;SDS011;51514;52.206;5.114;2023-03-17T08:11:36;6.70;;;4.22;;
64885;SDS011;51514;52.206;5.114;2023-03-17T08:14:03;7.72;;;4.45;;
64885;SDS011;51514;52.206;5.114;2023-03-17T08:16:29;7.25;;;4.40;;
64885;SDS011;51514;52.206;5.114;2023-03-17T08:18:55;7.10;;;4.55;;
64885;SDS011;51514;52.206;5.114;2023-03-17T08:21:22;9.25;;;4.38;;
64885;SDS011;51514;52.206;5.114;2023-03-17T08:23:48;10.10;;;4.60;;
64885;SDS011;51514;52.206;5.114;2023-03-17T08:26:14;12.85;;;4.70;;
64885;SDS011;51514;52.206;5.114;2023-03-17T08:28:39;7.95;;;4.60;;
64885;SDS011;51514;52.206;5.114;2023-03-17T08:31:06;10.88;;;4.78;;
64885;SDS011;51514;52.206;5.114;2023-03-17T08:33:32;9.15;;;4.93;;
64885;SDS011;51514;52.206;5.114;2023-03-17T08:35:58;6.75;;;3.95;;
64885;SDS011;51514;52.206;5.114;2023-03-17T08:38:24;6.28;;;4.55;;
64885;SDS011;51514;52.206;5.114;2023-03-17T08:40:49;7.95;;;4.70;;
64885;SDS011;51514;52.206;5.114;2023-03-17T08:43:14;5.97;;;4.22;;
64885;SDS011;51514;52.206;5.114;2023-03-17T08:45:40;10.15;;;3.92;;
64885;SDS011;51514;52.206;5.114;2023-03-17T08:48:05;7.15;;;4.45;;
64885;SDS011;51514;52.206;5.114;2023-03-17T08:50:31;8.40;;;4.13;;
64885;SDS011;51514;52.206;5.114;2023-03-17T08:52:56;7.90;;;4.10;;
64885;SDS011;51514;52.206;5.114;2023-03-17T08:55:21;8.88;;;4.25;;
64885;SDS011;51514;52.206;5.114;2023-03-17T08:57:47;9.57;;;4.57;;
64885;SDS011;51514;52.206;5.114;2023-03-17T09:00:14;8.25;;;4.22;;
64885;SDS011;51514;52.206;5.114;2023-03-17T09:02:44;7.32;;;4.53;;
64885;SDS011;51514;52.206;5.114;2023-03-17T09:05:10;11.57;;;4.53;;
64885;SDS011;51514;52.206;5.114;2023-03-17T09:07:37;8.10;;;4.43;;
64885;SDS011;51514;52.206;5.114;2023-03-17T09:10:04;9.57;;;4.85;;
64885;SDS011;51514;52.206;5.114;2023-03-17T09:12:31;6.97;;;4.10;;
64885;SDS011;51514;52.206;5.114;2023-03-17T09:14:56;11.10;;;4.97;;
64885;SDS011;51514;52.206;5.114;2023-03-17T09:17:22;7.45;;;4.57;;
64885;SDS011;51514;52.206;5.114;2023-03-17T09:19:47;9.27;;;4.60;;
64885;SDS011;51514;52.206;5.114;2023-03-17T09:22:13;7.97;;;4.78;;
64885;SDS011;51514;52.206;5.114;2023-03-17T09:24:41;8.35;;;4.45;;
64885;SDS011;51514;52.206;5.114;2023-03-17T09:27:07;7.45;;;4.28;;
64885;SDS011;51514;52.206;5.114;2023-03-17T09:29:32;6.93;;;4.50;;
64885;SDS011;51514;52.206;5.114;2023-03-17T09:31:58;8.98;;;4.55;;
64885;SDS011;51514;52.206;5.114;2023-03-17T09:34:24;8.68;;;4.35;;
64885;SDS011;51514;52.206;5.114;2023-03-17T09:36:51;7.88;;;4.32;;
64885;SDS011;51514;52.206;5.114;2023-03-17T09:39:17;8.57;;;4.93;;
64885;SDS011;51514;52.206;5.114;2023-03-17T09:44:21;9.05;;;4.68;;
64885;SDS011;51514;52.206;5.114;2023-03-17T09:49:36;7.13;;;4.15;;
64885;SDS011;51514;52.206;5.114;2023-03-17T09:52:16;10.00;;;4.60;;
64885;SDS011;51514;52.206;5.114;2023-03-17T09:54:47;8.13;;;4.45;;
64885;SDS011;51514;52.206;5.114;2023-03-17T09:57:18;8.88;;;4.90;;
64885;SDS011;51514;52.206;5.114;2023-03-17T09:59:47;8.68;;;4.50;;
64885;SDS011;51514;52.206;5.114;2023-03-17T10:02:21;11.00;;;4.38;;
64885;SDS011;51514;52.206;5.114;2023-03-17T10:04:55;12.85;;;4.40;;
64885;SDS011;51514;52.206;5.114;2023-03-17T10:07:24;8.05;;;4.47;;
64885;SDS011;51514;52.206;5.114;2023-03-17T10:10:01;9.00;;;4.82;;
64885;SDS011;51514;52.206;5.114;2023-03-17T10:17:58;8.70;;;4.53;;
64885;SDS011;51514;52.206;5.114;2023-03-17T10:20:24;8.05;;;4.50;;
64885;SDS011;51514;52.206;5.114;2023-03-17T10:22:54;9.77;;;4.80;;
64885;SDS011;51514;52.206;5.114;2023-03-17T10:25:23;6.32;;;4.40;;
64885;SDS011;51514;52.206;5.114;2023-03-17T10:27:56;6.60;;;4.25;;
64885;SDS011;51514;52.206;5.114;2023-03-17T10:30:26;7.57;;;3.90;;
64885;SDS011;51514;52.206;5.114;2023-03-17T10:32:54;10.23;;;4.72;;
64885;SDS011;51514;52.206;5.114;2023-03-17T10:37:48;6.70;;;4.93;;
64885;SDS011;51514;52.206;5.114;2023-03-17T10:40:27;8.05;;;4.72;;
64885;SDS011;51514;52.206;5.114;2023-03-17T10:42:59;9.18;;;4.90;;
64885;SDS011;51514;52.206;5.114;2023-03-17T10:45:30;7.05;;;4.68;;
64885;SDS011;51514;52.206;5.114;2023-03-17T10:47:57;9.15;;;5.10;;
64885;SDS011;51514;52.206;5.114;2023-03-17T10:52:57;7.25;;;4.65;;
64885;SDS011;51514;52.206;5.114;2023-03-17T10:55:30;8.75;;;5.32;;
64885;SDS011;51514;52.206;5.114;2023-03-17T10:58:04;9.77;;;5.03;;
64885;SDS011;51514;52.206;5.114;2023-03-17T11:00:32;10.82;;;5.55;;
64885;SDS011;51514;52.206;5.114;2023-03-17T11:03:02;10.75;;;5.53;;
64885;SDS011;51514;52.206;5.114;2023-03-17T11:05:34;9.07;;;5.55;;
64885;SDS011;51514;52.206;5.114;2023-03-17T11:10:42;10.38;;;5.45;;
64885;SDS011;51514;52.206;5.114;2023-03-17T11:13:08;7.47;;;5.15;;
64885;SDS011;51514;52.206;5.114;2023-03-17T11:15:36;10.05;;;5.00;;
64885;SDS011;51514;52.206;5.114;2023-03-17T11:18:10;7.60;;;5.63;;
64885;SDS011;51514;52.206;5.114;2023-03-17T11:20:57;8.25;;;5.07;;
64885;SDS011;51514;52.206;5.114;2023-03-17T11:32:27;9.50;;;5.70;;
64885;SDS011;51514;52.206;5.114;2023-03-17T11:35:12;10.75;;;6.03;;
64885;SDS011;51514;52.206;5.114;2023-03-17T11:56:40;9.48;;;6.25;;
64885;SDS011;51514;52.206;5.114;2023-03-17T11:59:14;12.18;;;6.70;;
64885;SDS011;51514;52.206;5.114;2023-03-17T12:01:50;9.90;;;6.25;;
64885;SDS011;51514;52.206;5.114;2023-03-17T12:04:31;9.65;;;6.10;;
64885;SDS011;51514;52.206;5.114;2023-03-17T12:07:15;12.50;;;6.10;;
64885;SDS011;51514;52.206;5.114;2023-03-17T12:09:46;10.60;;;6.05;;
64885;SDS011;51514;52.206;5.114;2023-03-17T12:12:23;8.82;;;6.53;;
64885;SDS011;51514;52.206;5.114;2023-03-17T12:14:54;12.18;;;6.47;;
64885;SDS011;51514;52.206;5.114;2023-03-17T12:17:22;10.68;;;6.70;;
64885;SDS011;51514;52.206;5.114;2023-03-17T12:22:55;10.88;;;6.90;;
64885;SDS011;51514;52.206;5.114;2023-03-17T12:25:29;13.15;;;7.05;;
64885;SDS011;51514;52.206;5.114;2023-03-17T12:28:09;11.98;;;6.22;;
64885;SDS011;51514;52.206;5.114;2023-03-17T12:30:45;10.63;;;6.32;;
64885;SDS011;51514;52.206;5.114;2023-03-17T12:36:04;9.80;;;6.60;;
64885;SDS011;51514;52.206;5.114;2023-03-17T12:41:16;11.48;;;5.90;;
64885;SDS011;51514;52.206;5.114;2023-03-17T12:49:47;10.82;;;5.78;;
64885;SDS011;51514;52.206;5.114;2023-03-17T12:52:28;9.25;;;6.40;;
64885;SDS011;51514;52.206;5.114;2023-03-17T12:57:42;13.32;;;6.93;;
64885;SDS011;51514;52.206;5.114;2023-03-17T13:02:50;12.55;;;7.05;;
64885;SDS011;51514;52.206;5.114;2023-03-17T13:05:31;10.93;;;6.95;;
64885;SDS011;51514;52.206;5.114;2023-03-17T13:07:58;11.68;;;6.43;;
64885;SDS011;51514;52.206;5.114;2023-03-17T13:10:42;14.52;;;7.10;;
64885;SDS011;51514;52.206;5.114;2023-03-17T13:16:03;12.10;;;6.20;;
64885;SDS011;51514;52.206;5.114;2023-03-17T13:23:33;12.50;;;6.88;;
64885;SDS011;51514;52.206;5.114;2023-03-17T13:25:59;17.33;;;6.32;;
64885;SDS011;51514;52.206;5.114;2023-03-17T13:28:39;12.27;;;6.35;;
64885;SDS011;51514;52.206;5.114;2023-03-17T13:33:52;12.38;;;7.10;;
64885;SDS011;51514;52.206;5.114;2023-03-17T13:42:26;11.80;;;6.65;;
64885;SDS011;51514;52.206;5.114;2023-03-17T13:47:49;12.85;;;6.47;;
64885;SDS011;51514;52.206;5.114;2023-03-17T13:50:23;9.30;;;6.43;;
64885;SDS011;51514;52.206;5.114;2023-03-17T13:52:56;10.68;;;6.75;;
64885;SDS011;51514;52.206;5.114;2023-03-17T13:55:28;10.02;;;5.85;;
64885;SDS011;51514;52.206;5.114;2023-03-17T14:00:30;9.60;;;6.32;;
64885;SDS011;51514;52.206;5.114;2023-03-17T14:05:52;12.57;;;6.93;;
64885;SDS011;51514;52.206;5.114;2023-03-17T14:10:54;11.20;;;6.43;;
64885;SDS011;51514;52.206;5.114;2023-03-17T14:13:23;7.57;;;5.68;;
64885;SDS011;51514;52.206;5.114;2023-03-17T14:21:02;12.75;;;6.45;;
64885;SDS011;51514;52.206;5.114;2023-03-17T14:23:30;10.80;;;6.47;;
64885;SDS011;51514;52.206;5.114;2023-03-17T14:25:57;9.35;;;6.05;;
64885;SDS011;51514;52.206;5.114;2023-03-17T14:28:25;9.82;;;6.47;;
64885;SDS011;51514;52.206;5.114;2023-03-17T14:30:53;9.40;;;6.10;;
64885;SDS011;51514;52.206;5.114;2023-03-17T14:33:24;11.57;;;6.78;;
64885;SDS011;51514;52.206;5.114;2023-03-17T14:35:52;10.48;;;6.68;;
64885;SDS011;51514;52.206;5.114;2023-03-17T14:38:22;14.02;;;6.38;;
64885;SDS011;51514;52.206;5.114;2023-03-17T14:41:03;9.27;;;6.43;;
64885;SDS011;51514;52.206;5.114;2023-03-17T14:43:41;10.18;;;6.25;;
64885;SDS011;51514;52.206;5.114;2023-03-17T14:46:15;12.30;;;6.00;;
64885;SDS011;51514;52.206;5.114;2023-03-17T14:48:47;11.45;;;6.60;;
64885;SDS011;51514;52.206;5.114;2023-03-17T14:51:21;11.02;;;6.72;;
64885;SDS011;51514;52.206;5.114;2023-03-17T14:53:53;14.93;;;10.10;;
64885;SDS011;51514;52.206;5.114;2023-03-17T14:56:26;12.05;;;8.05;;
64885;SDS011;51514;52.206;5.114;2023-03-17T14:58:55;13.40;;;7.65;;
64885;SDS011;51514;52.206;5.114;2023-03-17T15:01:35;12.60;;;7.45;;
64885;SDS011;51514;52.206;5.114;2023-03-17T15:04:22;10.18;;;6.93;;
64885;SDS011;51514;52.206;5.114;2023-03-17T15:06:56;9.80;;;6.55;;
64885;SDS011;51514;52.206;5.114;2023-03-17T15:09:28;11.70;;;6.55;;
64885;SDS011;51514;52.206;5.114;2023-03-17T15:14:40;8.85;;;6.65;;
64885;SDS011;51514;52.206;5.114;2023-03-17T15:17:19;13.70;;;7.20;;
64885;SDS011;51514;52.206;5.114;2023-03-17T15:19:50;11.77;;;6.60;;
64885;SDS011;51514;52.206;5.114;2023-03-17T15:22:25;11.75;;;6.57;;
64885;SDS011;51514;52.206;5.114;2023-03-17T15:25:02;12.00;;;7.18;;
64885;SDS011;51514;52.206;5.114;2023-03-17T15:27:31;10.30;;;7.10;;
64885;SDS011;51514;52.206;5.114;2023-03-17T15:29:57;12.88;;;6.47;;
64885;SDS011;51514;52.206;5.114;2023-03-17T15:32:24;11.25;;;7.13;;
64885;SDS011;51514;52.206;5.114;2023-03-17T15:34:51;9.32;;;7.25;;
64885;SDS011;51514;52.206;5.114;2023-03-17T15:39:47;10.00;;;6.68;;
64885;SDS011;51514;52.206;5.114;2023-03-17T15:42:14;10.75;;;6.90;;
64885;SDS011;51514;52.206;5.114;2023-03-17T15:44:41;11.45;;;7.32;;
64885;SDS011;51514;52.206;5.114;2023-03-17T15:47:06;10.90;;;7.38;;
64885;SDS011;51514;52.206;5.114;2023-03-17T15:49:37;12.93;;;8.00;;
64885;SDS011;51514;52.206;5.114;2023-03-17T15:52:04;9.57;;;7.47;;
64885;SDS011;51514;52.206;5.114;2023-03-17T15:54:38;14.00;;;8.10;;
64885;SDS011;51514;52.206;5.114;2023-03-17T15:57:03;14.15;;;7.63;;
64885;SDS011;51514;52.206;5.114;2023-03-17T15:59:28;11.57;;;7.18;;
64885;SDS011;51514;52.206;5.114;2023-03-17T16:01:54;12.50;;;7.35;;
64885;SDS011;51514;52.206;5.114;2023-03-17T16:04:19;12.35;;;7.53;;
64885;SDS011;51514;52.206;5.114;2023-03-17T16:06:45;11.15;;;7.10;;
64885;SDS011;51514;52.206;5.114;2023-03-17T16:09:12;11.50;;;7.03;;
64885;SDS011;51514;52.206;5.114;2023-03-17T16:11:39;11.47;;;7.50;;
64885;SDS011;51514;52.206;5.114;2023-03-17T16:14:04;13.88;;;8.30;;
64885;SDS011;51514;52.206;5.114;2023-03-17T16:16:37;13.15;;;7.47;;
64885;SDS011;51514;52.206;5.114;2023-03-17T16:19:04;10.55;;;7.63;;
64885;SDS011;51514;52.206;5.114;2023-03-17T16:21:45;13.90;;;7.93;;
64885;SDS011;51514;52.206;5.114;2023-03-17T16:24:20;12.80;;;7.53;;
64885;SDS011;51514;52.206;5.114;2023-03-17T16:26:48;12.52;;;7.70;;
64885;SDS011;51514;52.206;5.114;2023-03-17T16:29:15;14.40;;;7.82;;
64885;SDS011;51514;52.206;5.114;2023-03-17T16:31:42;15.52;;;7.28;;
64885;SDS011;51514;52.206;5.114;2023-03-17T16:34:20;11.57;;;7.53;;
64885;SDS011;51514;52.206;5.114;2023-03-17T16:36:47;11.88;;;7.10;;
64885;SDS011;51514;52.206;5.114;2023-03-17T16:39:18;11.40;;;7.28;;